Time;durP1;ratioP1;P1;durP2;ratioP2;P2;SDS_P1;SDS_P2;PMS_P1;PMS_P2;Temp;Humidity;BMP_temperature;BMP_pressure;BME280_temperature;BME280_humidity;BME280_pressure;Samples;Min_cycle;Max_cycle;Signal;HPM_P1;HPM_P2
2022/03/23 00:01:40;;;;;;;16.30;9.40;;;;;;;;;;5079730;28;20059;-59
2022/03/23 00:04:06;;;;;;;16.45;9.63;;;;;;;;;;5078300;28;20103;-58
2022/03/23 00:06:32;;;;;;;18.45;9.15;;;;;;;;;;5083356;28;20103;-59
2022/03/23 00:08:58;;;;;;;13.98;8.32;;;;;;;;;;5076180;28;20021;-58
2022/03/23 00:11:24;;;;;;;15.70;8.32;;;;;;;;;;5079874;28;20020;-58
2022/03/23 00:13:50;;;;;;;15.63;8.60;;;;;;;;;;5076760;28;20103;-58
2022/03/23 00:16:17;;;;;;;15.15;8.95;;;;;;;;;;5082682;28;20020;-58
2022/03/23 00:18:43;;;;;;;14.68;8.50;;;;;;;;;;5078639;28;20116;-59
2022/03/23 00:21:09;;;;;;;14.70;8.80;;;;;;;;;;5081586;28;20103;-59
2022/03/23 00:23:35;;;;;;;16.13;8.60;;;;;;;;;;5076206;28;20115;-59
2022/03/23 00:26:02;;;;;;;16.35;8.65;;;;;;;;;;5081538;28;20048;-57
2022/03/23 00:28:28;;;;;;;14.63;9.48;;;;;;;;;;5078655;28;20103;-58
2022/03/23 00:30:54;;;;;;;14.18;8.45;;;;;;;;;;5081592;28;20028;-59
2022/03/23 00:33:23;;;;;;;13.18;8.88;;;;;;;;;;5076387;28;20025;-59
2022/03/23 00:35:50;;;;;;;15.52;8.50;;;;;;;;;;5077487;28;20028;-58
2022/03/23 00:38:17;;;;;;;12.85;8.80;;;;;;;;;;5080444;28;20079;-58
2022/03/23 00:40:46;;;;;;;14.82;8.55;;;;;;;;;;5078072;28;20478;-58
2022/03/23 00:43:13;;;;;;;16.73;9.13;;;;;;;;;;5077823;28;20029;-58
2022/03/23 00:45:39;;;;;;;14.32;8.52;;;;;;;;;;5076515;28;20478;-59
2022/03/23 00:48:06;;;;;;;13.55;8.52;;;;;;;;;;5080797;28;20028;-58
2022/03/23 00:50:34;;;;;;;13.85;9.00;;;;;;;;;;5076694;28;20036;-59
2022/03/23 00:53:01;;;;;;;14.07;9.18;;;;;;;;;;5080219;28;20020;-59
2022/03/23 00:55:27;;;;;;;16.42;9.63;;;;;;;;;;5076335;28;20115;-57
2022/03/23 00:57:53;;;;;;;14.02;8.82;;;;;;;;;;5084719;28;20035;-60
2022/03/23 01:00:20;;;;;;;13.63;7.85;;;;;;;;;;5084900;28;20044;-57
2022/03/23 01:02:46;;;;;;;15.52;8.38;;;;;;;;;;5084000;28;20478;-58
2022/03/23 01:05:13;;;;;;;12.50;7.70;;;;;;;;;;5081410;28;20029;-60
2022/03/23 01:07:40;;;;;;;12.50;8.30;;;;;;;;;;5083626;28;20465;-58
2022/03/23 01:10:09;;;;;;;15.38;8.38;;;;;;;;;;5082209;28;20035;-59
2022/03/23 01:12:36;;;;;;;20.65;9.25;;;;;;;;;;5083802;28;20040;-59
2022/03/23 01:15:02;;;;;;;18.27;8.88;;;;;;;;;;5081218;28;20102;-60
2022/03/23 01:17:28;;;;;;;14.15;9.60;;;;;;;;;;5084226;28;20111;-59
2022/03/23 01:19:54;;;;;;;12.45;8.05;;;;;;;;;;5080748;28;20050;-59
2022/03/23 01:22:20;;;;;;;13.63;8.68;;;;;;;;;;5084523;28;20095;-59
2022/03/23 01:24:46;;;;;;;12.05;8.15;;;;;;;;;;5080740;28;20051;-58
2022/03/23 01:27:12;;;;;;;12.57;7.85;;;;;;;;;;5081930;28;20563;-58
2022/03/23 01:29:38;;;;;;;13.00;8.35;;;;;;;;;;5081333;28;20029;-58
2022/03/23 01:32:05;;;;;;;15.55;9.35;;;;;;;;;;5081404;28;20020;-58
2022/03/23 01:34:31;;;;;;;13.32;8.63;;;;;;;;;;5084188;28;20099;-59
2022/03/23 01:36:57;;;;;;;12.55;7.35;;;;;;;;;;5078922;28;20135;-59
2022/03/23 01:39:23;;;;;;;15.95;8.40;;;;;;;;;;5085280;28;20530;-58
2022/03/23 01:41:49;;;;;;;11.88;7.47;;;;;;;;;;5079377;28;20039;-58
2022/03/23 01:44:22;;;;;;;14.20;7.97;;;;;;;;;;5084730;28;20657;-59
2022/03/23 01:46:59;;;;;;;12.82;8.10;;;;;;;;;;5079894;28;20662;-58
2022/03/23 01:49:25;;;;;;;12.82;7.95;;;;;;;;;;5083218;28;20032;-59
2022/03/23 01:51:51;;;;;;;12.35;7.95;;;;;;;;;;5081370;28;20434;-60
2022/03/23 01:54:17;;;;;;;12.82;8.40;;;;;;;;;;5083836;28;20028;-59
2022/03/23 01:56:44;;;;;;;13.23;8.30;;;;;;;;;;5080029;28;20106;-58
2022/03/23 01:59:10;;;;;;;13.38;7.88;;;;;;;;;;5082324;28;20032;-58
2022/03/23 02:01:38;;;;;;;11.23;7.57;;;;;;;;;;5079558;28;20050;-58
2022/03/23 02:04:04;;;;;;;12.25;7.88;;;;;;;;;;5083508;28;20106;-59
2022/03/23 02:06:30;;;;;;;11.18;7.55;;;;;;;;;;5081134;28;20035;-58
2022/03/23 02:08:56;;;;;;;12.02;8.00;;;;;;;;;;5078703;28;20047;-58
2022/03/23 02:11:22;;;;;;;13.32;7.65;;;;;;;;;;5079319;28;20058;-59
2022/03/23 02:13:48;;;;;;;13.98;8.25;;;;;;;;;;5081300;28;20024;-58
2022/03/23 02:16:14;;;;;;;11.93;7.38;;;;;;;;;;5083029;28;20024;-59
2022/03/23 02:18:40;;;;;;;14.13;8.00;;;;;;;;;;5079522;28;20099;-59
2022/03/23 02:21:06;;;;;;;14.20;8.77;;;;;;;;;;5083439;28;20027;-59
2022/03/23 02:23:32;;;;;;;13.52;7.80;;;;;;;;;;5079051;28;20028;-58
2022/03/23 02:26:01;;;;;;;13.48;8.73;;;;;;;;;;5087779;28;20855;-59
2022/03/23 02:28:27;;;;;;;14.48;8.32;;;;;;;;;;5087583;28;20024;-58
2022/03/23 02:30:54;;;;;;;13.05;8.45;;;;;;;;;;5088694;28;20359;-59
2022/03/23 02:33:23;;;;;;;11.85;7.80;;;;;;;;;;5089133;28;20694;-59
2022/03/23 02:35:49;;;;;;;13.40;7.82;;;;;;;;;;5089334;28;20107;-59
2022/03/23 02:38:16;;;;;;;10.60;7.95;;;;;;;;;;5088959;28;20024;-58
2022/03/23 02:40:42;;;;;;;12.35;7.35;;;;;;;;;;5088725;28;20032;-59
2022/03/23 02:43:09;;;;;;;10.52;7.10;;;;;;;;;;5088578;28;20028;-59
2022/03/23 02:45:35;;;;;;;13.63;8.73;;;;;;;;;;5088731;28;20026;-59
2022/03/23 02:48:03;;;;;;;10.40;7.85;;;;;;;;;;5088669;28;20493;-58
2022/03/23 02:50:29;;;;;;;10.98;7.43;;;;;;;;;;5088599;28;20050;-58
2022/03/23 03:04:10;;;;;;;12.52;8.02;;;;;;;;;;5088856;28;20081;-60
2022/03/23 03:06:36;;;;;;;11.40;8.07;;;;;;;;;;5088383;28;20032;-59
2022/03/23 03:09:02;;;;;;;10.52;7.38;;;;;;;;;;5088539;28;20172;-58
2022/03/23 03:11:28;;;;;;;11.95;8.45;;;;;;;;;;5088437;28;20439;-58
2022/03/23 03:13:54;;;;;;;12.23;7.72;;;;;;;;;;5088755;28;20118;-59
2022/03/23 03:16:21;;;;;;;13.27;8.02;;;;;;;;;;5088048;28;20032;-58
2022/03/23 03:18:47;;;;;;;10.75;7.25;;;;;;;;;;5088750;28;20035;-58
2022/03/23 03:21:13;;;;;;;12.68;7.93;;;;;;;;;;5088062;28;20197;-58
2022/03/23 03:23:43;;;;;;;11.40;7.70;;;;;;;;;;5087242;28;20024;-58
2022/03/23 03:26:10;;;;;;;10.35;6.95;;;;;;;;;;5088250;28;20462;-59
2022/03/23 03:28:37;;;;;;;11.52;7.72;;;;;;;;;;5087869;28;20035;-59
2022/03/23 03:31:04;;;;;;;11.60;7.55;;;;;;;;;;5088617;28;20040;-58
2022/03/23 03:33:30;;;;;;;10.57;7.47;;;;;;;;;;5087801;28;20436;-59
2022/03/23 03:35:57;;;;;;;12.02;8.15;;;;;;;;;;5088240;28;20047;-58
2022/03/23 03:38:23;;;;;;;12.77;8.23;;;;;;;;;;5087517;28;20077;-59
2022/03/23 03:40:49;;;;;;;11.38;7.75;;;;;;;;;;5087946;28;20390;-58
2022/03/23 03:43:16;;;;;;;12.23;7.35;;;;;;;;;;5087769;28;20020;-58
2022/03/23 03:45:42;;;;;;;12.35;7.82;;;;;;;;;;5082541;28;20033;-58
2022/03/23 03:48:08;;;;;;;11.15;7.63;;;;;;;;;;5081616;28;20496;-59
2022/03/23 03:50:35;;;;;;;11.77;7.28;;;;;;;;;;5088275;28;20055;-58
2022/03/23 03:53:01;;;;;;;11.18;7.35;;;;;;;;;;5084978;28;20103;-59
2022/03/23 03:55:28;;;;;;;11.25;7.03;;;;;;;;;;5085181;28;20024;-58
2022/03/23 03:57:54;;;;;;;12.73;7.70;;;;;;;;;;5087699;28;20031;-58
2022/03/23 04:00:20;;;;;;;10.52;7.65;;;;;;;;;;5087565;28;20024;-58
2022/03/23 04:02:46;;;;;;;11.05;7.72;;;;;;;;;;5086509;28;20165;-58
2022/03/23 04:05:12;;;;;;;10.95;8.38;;;;;;;;;;5087856;28;20024;-58
2022/03/23 04:07:38;;;;;;;10.45;7.05;;;;;;;;;;5087648;28;20351;-58
2022/03/23 04:10:05;;;;;;;11.90;7.53;;;;;;;;;;5087146;28;20461;-59
2022/03/23 04:12:31;;;;;;;10.25;7.18;;;;;;;;;;5087560;28;20478;-58
2022/03/23 04:14:58;;;;;;;11.27;7.82;;;;;;;;;;5088252;28;20125;-59
2022/03/23 04:17:24;;;;;;;11.88;8.05;;;;;;;;;;5087311;28;20050;-58
2022/03/23 04:19:50;;;;;;;10.75;7.90;;;;;;;;;;5087705;28;20057;-58
2022/03/23 04:22:16;;;;;;;12.18;8.07;;;;;;;;;;5087534;28;20031;-58
2022/03/23 04:24:42;;;;;;;10.13;7.15;;;;;;;;;;5087065;28;20032;-58
2022/03/23 04:27:08;;;;;;;11.52;8.25;;;;;;;;;;5088539;28;20558;-58
2022/03/23 04:29:34;;;;;;;11.23;8.15;;;;;;;;;;5085820;28;20063;-59
2022/03/23 04:32:00;;;;;;;11.77;7.60;;;;;;;;;;5085213;28;20493;-59
2022/03/23 04:34:26;;;;;;;11.88;7.45;;;;;;;;;;5083223;28;20027;-58
2022/03/23 04:36:53;;;;;;;12.48;7.78;;;;;;;;;;5091733;28;20031;-59
2022/03/23 04:39:19;;;;;;;12.02;7.68;;;;;;;;;;5091144;28;20105;-59
2022/03/23 04:41:45;;;;;;;10.95;7.43;;;;;;;;;;5091422;28;20086;-59
2022/03/23 04:44:11;;;;;;;11.65;7.30;;;;;;;;;;5090374;28;20020;-58
2022/03/23 04:46:38;;;;;;;10.85;7.88;;;;;;;;;;5091116;28;20024;-59
2022/03/23 04:49:04;;;;;;;11.60;7.50;;;;;;;;;;5090805;28;20442;-59
2022/03/23 04:51:31;;;;;;;11.60;7.65;;;;;;;;;;5091129;28;20036;-58
2022/03/23 04:53:57;;;;;;;11.20;8.02;;;;;;;;;;5091704;28;20050;-59
2022/03/23 04:56:23;;;;;;;14.02;7.50;;;;;;;;;;5090333;28;20521;-58
2022/03/23 04:58:49;;;;;;;9.85;7.45;;;;;;;;;;5090912;28;20116;-58
2022/03/23 05:01:15;;;;;;;10.70;7.28;;;;;;;;;;5090599;28;20028;-59
2022/03/23 05:03:42;;;;;;;23.95;16.20;;;;;;;;;;5091065;28;20097;-58
2022/03/23 05:06:08;;;;;;;27.02;18.73;;;;;;;;;;5090352;28;20060;-59
2022/03/23 05:08:34;;;;;;;32.10;19.55;;;;;;;;;;5091325;28;20055;-58
2022/03/23 05:11:00;;;;;;;36.30;20.30;;;;;;;;;;5085821;28;20537;-59
2022/03/23 05:13:26;;;;;;;33.25;19.27;;;;;;;;;;5075897;28;20032;-58
2022/03/23 05:15:52;;;;;;;27.58;20.15;;;;;;;;;;5075949;28;20051;-59
2022/03/23 05:18:18;;;;;;;34.03;20.83;;;;;;;;;;5078061;28;20028;-59
2022/03/23 05:20:45;;;;;;;33.20;20.60;;;;;;;;;;5075112;28;20055;-59
2022/03/23 05:23:11;;;;;;;34.83;19.95;;;;;;;;;;5073116;28;20024;-58
2022/03/23 05:25:37;;;;;;;32.22;19.52;;;;;;;;;;5075081;28;20033;-58
2022/03/23 05:28:06;;;;;;;41.28;21.13;;;;;;;;;;5077605;28;20497;-60
2022/03/23 05:30:36;;;;;;;31.90;19.52;;;;;;;;;;5077999;28;20447;-58
2022/03/23 05:33:02;;;;;;;35.50;23.50;;;;;;;;;;5075946;28;20027;-59
2022/03/23 05:35:28;;;;;;;39.97;25.52;;;;;;;;;;5074149;28;20028;-58
2022/03/23 05:37:55;;;;;;;45.97;28.00;;;;;;;;;;5073717;28;20020;-58
2022/03/23 05:40:22;;;;;;;34.70;23.65;;;;;;;;;;5077077;28;20100;-59
2022/03/23 05:42:49;;;;;;;68.45;29.92;;;;;;;;;;5074375;28;20682;-59
2022/03/23 05:45:15;;;;;;;46.85;28.52;;;;;;;;;;5073993;28;20994;-58
2022/03/23 05:47:41;;;;;;;56.10;26.85;;;;;;;;;;5074833;28;20039;-58
2022/03/23 05:50:08;;;;;;;38.72;24.08;;;;;;;;;;5078768;28;20036;-58
2022/03/23 05:52:35;;;;;;;52.67;26.63;;;;;;;;;;5075558;28;20040;-58
2022/03/23 05:55:01;;;;;;;44.25;24.00;;;;;;;;;;5077454;28;20046;-58
2022/03/23 05:57:28;;;;;;;35.00;23.35;;;;;;;;;;5073224;28;20289;-58
2022/03/23 05:59:54;;;;;;;37.53;24.02;;;;;;;;;;5075182;28;20463;-57
2022/03/23 06:02:20;;;;;;;40.97;23.73;;;;;;;;;;5075562;28;20043;-58
2022/03/23 06:04:46;;;;;;;38.97;23.35;;;;;;;;;;5076307;28;20354;-59
2022/03/23 06:07:13;;;;;;;38.83;22.55;;;;;;;;;;5074699;28;20044;-56
2022/03/23 06:09:40;;;;;;;36.92;22.17;;;;;;;;;;5076523;28;20402;-58
2022/03/23 06:12:11;;;;;;;40.83;22.63;;;;;;;;;;5076830;28;20492;-58
2022/03/23 06:14:38;;;;;;;41.75;20.92;;;;;;;;;;5076773;28;20043;-58
2022/03/23 06:17:06;;;;;;;35.88;21.13;;;;;;;;;;5077205;28;20020;-59
2022/03/23 06:19:32;;;;;;;33.70;20.08;;;;;;;;;;5074886;28;20169;-57
2022/03/23 06:21:58;;;;;;;39.65;18.85;;;;;;;;;;5077248;28;20117;-58
2022/03/23 06:24:24;;;;;;;34.08;20.27;;;;;;;;;;5077491;28;20176;-59
2022/03/23 06:26:50;;;;;;;31.60;18.45;;;;;;;;;;5074071;28;20553;-59
2022/03/23 06:29:16;;;;;;;31.20;19.70;;;;;;;;;;5071420;28;20652;-58
2022/03/23 06:31:42;;;;;;;34.45;18.25;;;;;;;;;;5076165;28;20119;-58
2022/03/23 06:34:09;;;;;;;33.53;18.88;;;;;;;;;;5076634;28;20032;-58
2022/03/23 06:36:35;;;;;;;30.00;17.40;;;;;;;;;;5076327;28;20040;-58
2022/03/23 06:39:02;;;;;;;32.08;16.92;;;;;;;;;;5073968;28;20040;-55
2022/03/23 06:41:28;;;;;;;28.63;17.00;;;;;;;;;;5071920;28;20028;-58
2022/03/23 06:43:54;;;;;;;32.22;16.70;;;;;;;;;;5075800;28;22954;-57
2022/03/23 06:46:20;;;;;;;29.10;17.00;;;;;;;;;;5071638;28;20094;-57
2022/03/23 06:48:47;;;;;;;23.90;15.43;;;;;;;;;;5073051;28;20494;-56
2022/03/23 06:51:13;;;;;;;27.23;15.93;;;;;;;;;;5072128;28;20040;-57
2022/03/23 06:53:39;;;;;;;30.88;15.48;;;;;;;;;;5072584;28;20624;-56
2022/03/23 06:56:05;;;;;;;27.48;15.95;;;;;;;;;;5068845;28;20670;-57
2022/03/23 06:58:31;;;;;;;24.50;14.23;;;;;;;;;;5075887;28;20024;-57
2022/03/23 07:00:58;;;;;;;29.17;15.15;;;;;;;;;;5073114;28;20056;-57
2022/03/23 07:03:24;;;;;;;26.70;15.18;;;;;;;;;;5074918;28;20379;-55
2022/03/23 07:05:50;;;;;;;25.73;14.27;;;;;;;;;;5076016;28;20032;-57
2022/03/23 07:11:02;;;;;;;23.73;14.07;;;;;;;;;;5073360;28;20051;-55
2022/03/23 07:13:29;;;;;;;23.65;13.90;;;;;;;;;;5072922;28;20024;-57
2022/03/23 07:15:54;;;;;;;20.20;13.18;;;;;;;;;;5074900;28;20029;-58
2022/03/23 07:18:20;;;;;;;19.70;13.23;;;;;;;;;;5070874;28;20032;-57
2022/03/23 07:20:46;;;;;;;27.30;13.80;;;;;;;;;;5072859;28;20065;-55
2022/03/23 07:23:13;;;;;;;22.63;13.50;;;;;;;;;;5070007;28;20082;-57
2022/03/23 07:25:38;;;;;;;23.10;12.25;;;;;;;;;;5072223;28;20056;-56
2022/03/23 07:28:05;;;;;;;19.92;12.23;;;;;;;;;;5072203;28;20032;-55
2022/03/23 07:30:33;;;;;;;20.30;12.27;;;;;;;;;;5072272;28;20032;-57
2022/03/23 07:33:00;;;;;;;23.70;13.48;;;;;;;;;;5070597;28;20024;-56
2022/03/23 07:35:26;;;;;;;20.20;12.02;;;;;;;;;;5073765;28;20207;-58
2022/03/23 07:37:52;;;;;;;21.85;12.05;;;;;;;;;;5073690;28;20035;-58
2022/03/23 07:40:19;;;;;;;18.08;12.02;;;;;;;;;;5074667;28;20111;-58
2022/03/23 07:42:45;;;;;;;18.95;11.73;;;;;;;;;;5071521;28;20123;-59
2022/03/23 07:45:11;;;;;;;21.35;11.65;;;;;;;;;;5076799;28;20121;-57
2022/03/23 07:47:38;;;;;;;20.75;11.52;;;;;;;;;;5073961;28;20099;-57
2022/03/23 07:50:04;;;;;;;20.13;10.65;;;;;;;;;;5072380;28;20048;-57
2022/03/23 07:52:30;;;;;;;18.52;10.75;;;;;;;;;;5075023;28;20024;-57
2022/03/23 07:54:56;;;;;;;24.73;10.77;;;;;;;;;;5071270;28;20111;-59
2022/03/23 07:57:24;;;;;;;19.77;11.02;;;;;;;;;;5068522;28;20098;-59
2022/03/23 07:59:50;;;;;;;22.27;11.63;;;;;;;;;;5069553;28;20441;-59
2022/03/23 08:02:16;;;;;;;20.08;11.18;;;;;;;;;;5073635;28;20714;-59
2022/03/23 08:04:42;;;;;;;20.98;10.70;;;;;;;;;;5072268;28;20058;-58
2022/03/23 08:07:08;;;;;;;27.63;11.23;;;;;;;;;;5071743;28;20028;-59
2022/03/23 08:09:34;;;;;;;35.80;13.50;;;;;;;;;;5075748;28;20071;-59
2022/03/23 08:12:00;;;;;;;26.90;12.68;;;;;;;;;;5077709;28;20032;-66
2022/03/23 08:14:26;;;;;;;21.67;13.13;;;;;;;;;;5074573;28;20032;-59
2022/03/23 08:16:52;;;;;;;28.17;13.85;;;;;;;;;;5071412;28;20032;-59
2022/03/23 08:19:22;;;;;;;30.65;12.55;;;;;;;;;;5077162;28;20040;-59
2022/03/23 08:21:48;;;;;;;22.67;12.63;;;;;;;;;;5074893;28;20052;-59
2022/03/23 08:24:14;;;;;;;22.65;13.35;;;;;;;;;;5075883;28;20123;-59
2022/03/23 08:26:40;;;;;;;20.08;11.48;;;;;;;;;;5078501;28;20588;-60
2022/03/23 08:29:06;;;;;;;24.80;12.80;;;;;;;;;;5078644;28;20794;-61
2022/03/23 08:31:32;;;;;;;28.83;15.15;;;;;;;;;;5075061;28;20075;-58
2022/03/23 08:33:58;;;;;;;30.05;14.35;;;;;;;;;;5075944;28;20141;-58
2022/03/23 08:36:24;;;;;;;21.23;12.73;;;;;;;;;;5077847;28;20132;-59
2022/03/23 08:38:50;;;;;;;32.70;14.35;;;;;;;;;;5077584;28;20039;-60
2022/03/23 08:41:18;;;;;;;21.90;13.55;;;;;;;;;;5075544;28;20036;-60
2022/03/23 08:43:44;;;;;;;32.00;13.13;;;;;;;;;;5079981;28;20495;-59
2022/03/23 08:46:13;;;;;;;34.05;13.70;;;;;;;;;;5074509;28;20020;-59
2022/03/23 08:48:39;;;;;;;36.38;13.93;;;;;;;;;;5072905;28;21565;-60
2022/03/23 08:51:05;;;;;;;28.27;13.77;;;;;;;;;;5073263;28;20042;-59
2022/03/23 08:53:31;;;;;;;30.08;12.52;;;;;;;;;;5076714;28;20024;-59
2022/03/23 08:55:57;;;;;;;28.02;13.10;;;;;;;;;;5076336;28;20036;-59
2022/03/23 08:58:24;;;;;;;35.42;13.20;;;;;;;;;;5079777;28;20039;-63
2022/03/23 09:00:50;;;;;;;29.75;12.13;;;;;;;;;;5074362;28;20090;-60
2022/03/23 09:03:16;;;;;;;29.30;20.75;;;;;;;;;;5076943;28;20466;-60
2022/03/23 09:05:42;;;;;;;36.08;22.15;;;;;;;;;;5072787;28;20043;-59
2022/03/23 09:08:09;;;;;;;33.75;22.33;;;;;;;;;;5080178;28;20032;-60
2022/03/23 09:10:36;;;;;;;33.67;22.80;;;;;;;;;;5078609;28;20055;-59
2022/03/23 09:13:02;;;;;;;34.58;22.70;;;;;;;;;;5075646;28;20100;-60
2022/03/23 09:15:30;;;;;;;33.28;23.88;;;;;;;;;;5077930;28;20397;-59
2022/03/23 09:18:02;;;;;;;36.42;23.90;;;;;;;;;;5077613;28;20024;-59
2022/03/23 09:20:29;;;;;;;33.40;23.77;;;;;;;;;;5076336;28;20818;-60
2022/03/23 09:22:55;;;;;;;37.00;24.92;;;;;;;;;;5078094;28;20114;-59
2022/03/23 09:25:22;;;;;;;34.65;23.98;;;;;;;;;;5076246;28;20549;-59
2022/03/23 09:27:48;;;;;;;36.42;25.00;;;;;;;;;;5078553;28;20028;-59
2022/03/23 09:30:15;;;;;;;34.85;25.65;;;;;;;;;;5077977;28;20525;-59
2022/03/23 09:32:43;;;;;;;38.88;25.98;;;;;;;;;;5076442;28;20088;-59
2022/03/23 09:35:09;;;;;;;37.17;24.77;;;;;;;;;;5075729;28;20028;-59
2022/03/23 09:37:47;;;;;;;37.78;25.77;;;;;;;;;;5074122;28;20036;-59
2022/03/23 09:40:14;;;;;;;33.05;23.67;;;;;;;;;;5074560;28;20063;-59
2022/03/23 09:42:42;;;;;;;34.85;25.33;;;;;;;;;;5072872;28;20020;-60
2022/03/23 09:45:08;;;;;;;35.28;24.05;;;;;;;;;;5073699;28;20083;-58
2022/03/23 09:47:34;;;;;;;33.30;23.50;;;;;;;;;;5072165;28;20077;-59
2022/03/23 09:50:00;;;;;;;35.75;24.40;;;;;;;;;;5072494;28;20070;-59
2022/03/23 09:52:27;;;;;;;30.73;23.45;;;;;;;;;;5073939;28;20501;-59
2022/03/23 09:54:53;;;;;;;32.67;22.65;;;;;;;;;;5071901;28;20044;-60
2022/03/23 09:57:19;;;;;;;33.67;22.63;;;;;;;;;;5075761;28;20127;-59
2022/03/23 09:59:45;;;;;;;30.00;22.00;;;;;;;;;;5076621;28;20030;-59
2022/03/23 10:02:14;;;;;;;31.98;22.08;;;;;;;;;;5074340;28;20028;-59
2022/03/23 10:05:03;;;;;;;34.40;21.63;;;;;;;;;;5076691;28;20098;-59
2022/03/23 10:07:29;;;;;;;29.13;20.10;;;;;;;;;;5073669;28;20629;-59
2022/03/23 10:10:14;;;;;;;33.30;21.48;;;;;;;;;;5075324;28;20127;-59
2022/03/23 10:12:40;;;;;;;30.08;21.35;;;;;;;;;;5072970;28;20108;-58
2022/03/23 10:15:24;;;;;;;30.88;21.70;;;;;;;;;;5073592;28;20093;-59
2022/03/23 10:17:59;;;;;;;28.55;20.92;;;;;;;;;;5070338;28;20032;-59
2022/03/23 10:20:25;;;;;;;30.77;21.40;;;;;;;;;;5072740;28;20366;-59
2022/03/23 10:22:52;;;;;;;29.50;20.05;;;;;;;;;;5074075;28;20030;-58
2022/03/23 10:25:20;;;;;;;26.77;20.35;;;;;;;;;;5076770;28;20028;-59
2022/03/23 10:27:46;;;;;;;28.73;19.58;;;;;;;;;;5073306;28;20110;-58
2022/03/23 10:30:17;;;;;;;24.67;19.55;;;;;;;;;;5073306;28;20055;-60
2022/03/23 10:32:43;;;;;;;27.02;20.60;;;;;;;;;;5072601;28;20035;-60
2022/03/23 10:35:12;;;;;;;28.42;23.40;;;;;;;;;;5073657;28;20487;-59
2022/03/23 10:37:37;;;;;;;27.83;22.58;;;;;;;;;;5073225;28;20531;-60
2022/03/23 10:40:08;;;;;;;33.10;21.95;;;;;;;;;;5074250;28;20096;-59
2022/03/23 10:42:35;;;;;;;28.63;21.95;;;;;;;;;;5072722;28;20453;-58
2022/03/23 10:45:07;;;;;;;30.02;20.90;;;;;;;;;;5072801;28;20024;-58
2022/03/23 10:47:33;;;;;;;27.05;20.77;;;;;;;;;;5071531;28;20490;-60
2022/03/23 10:50:07;;;;;;;25.63;19.85;;;;;;;;;;5073334;28;20040;-58
2022/03/23 10:52:33;;;;;;;25.85;20.35;;;;;;;;;;5071971;28;20040;-59
2022/03/23 10:55:02;;;;;;;27.10;20.10;;;;;;;;;;5074273;28;20028;-59
2022/03/23 10:57:54;;;;;;;24.33;19.48;;;;;;;;;;5073591;28;20043;-58
2022/03/23 11:00:34;;;;;;;24.90;19.92;;;;;;;;;;5072334;28;20030;-58
2022/03/23 11:03:01;;;;;;;23.02;17.85;;;;;;;;;;5071593;28;20028;-59
2022/03/23 11:05:33;;;;;;;24.10;17.42;;;;;;;;;;5069925;28;20560;-58
2022/03/23 11:08:07;;;;;;;23.15;19.00;;;;;;;;;;5072618;28;20088;-59
2022/03/23 11:16:07;;;;;;;21.55;17.10;;;;;;;;;;5075334;28;20035;-59
2022/03/23 11:18:33;;;;;;;23.10;18.30;;;;;;;;;;5076534;28;20039;-59
2022/03/23 11:21:00;;;;;;;21.88;17.48;;;;;;;;;;5072247;28;20024;-59
2022/03/23 11:23:30;;;;;;;21.13;17.10;;;;;;;;;;5073681;28;20101;-59
2022/03/23 11:26:00;;;;;;;21.77;16.73;;;;;;;;;;5072729;28;20040;-59
2022/03/23 11:28:28;;;;;;;23.05;17.80;;;;;;;;;;5070629;28;20582;-59
2022/03/23 11:30:54;;;;;;;21.83;16.83;;;;;;;;;;5073473;28;20161;-58
2022/03/23 11:33:22;;;;;;;21.25;15.80;;;;;;;;;;5070699;28;20108;-60
2022/03/23 11:35:50;;;;;;;22.33;15.85;;;;;;;;;;5073972;28;20037;-58
2022/03/23 11:38:18;;;;;;;22.60;16.55;;;;;;;;;;5072141;28;20055;-59
2022/03/23 11:40:45;;;;;;;19.33;16.02;;;;;;;;;;5070463;28;20085;-59
2022/03/23 11:43:12;;;;;;;19.98;15.75;;;;;;;;;;5073004;28;20028;-59
2022/03/23 11:45:39;;;;;;;20.50;15.02;;;;;;;;;;5070321;28;20120;-59
2022/03/23 11:48:12;;;;;;;18.98;15.52;;;;;;;;;;5072398;28;20478;-59
2022/03/23 11:50:44;;;;;;;18.88;15.00;;;;;;;;;;5074154;28;20395;-59
2022/03/23 11:53:13;;;;;;;17.85;14.55;;;;;;;;;;5072185;28;20108;-59
2022/03/23 11:55:46;;;;;;;22.50;15.20;;;;;;;;;;5071652;28;20116;-59
2022/03/23 11:58:18;;;;;;;17.30;14.50;;;;;;;;;;5069181;28;20993;-59
2022/03/23 12:00:55;;;;;;;19.88;14.40;;;;;;;;;;5072539;28;20643;-59
2022/03/23 12:03:40;;;;;;;20.77;15.15;;;;;;;;;;5072475;28;20035;-60
2022/03/23 12:06:11;;;;;;;17.73;13.15;;;;;;;;;;5067641;28;20528;-59
2022/03/23 12:08:57;;;;;;;18.20;13.70;;;;;;;;;;5073694;28;20024;-59
2022/03/23 12:11:59;;;;;;;17.75;14.05;;;;;;;;;;5069080;28;20041;-58
2022/03/23 12:14:26;;;;;;;16.95;13.30;;;;;;;;;;5037171;28;20025;-59
2022/03/23 12:16:53;;;;;;;16.98;13.55;;;;;;;;;;5064319;28;20048;-59
2022/03/23 12:19:24;;;;;;;16.50;12.90;;;;;;;;;;5072148;28;20044;-59
2022/03/23 12:21:59;;;;;;;22.95;15.27;;;;;;;;;;5072522;28;20036;-59
2022/03/23 12:24:48;;;;;;;23.88;15.90;;;;;;;;;;5072608;28;21203;-59
2022/03/23 12:27:27;;;;;;;24.93;17.57;;;;;;;;;;5052514;28;20048;-59
2022/03/23 12:29:53;;;;;;;29.92;17.90;;;;;;;;;;5073223;28;20119;-60
2022/03/23 12:32:20;;;;;;;26.05;17.13;;;;;;;;;;5072525;28;20033;-59
2022/03/23 12:34:51;;;;;;;27.52;19.08;;;;;;;;;;5072264;28;20138;-59
2022/03/23 12:37:19;;;;;;;27.25;17.83;;;;;;;;;;5069065;28;20115;-58
2022/03/23 12:39:53;;;;;;;27.85;17.50;;;;;;;;;;5072498;28;20127;-59
2022/03/23 12:42:21;;;;;;;24.77;17.35;;;;;;;;;;5072179;28;20421;-59
2022/03/23 12:45:03;;;;;;;23.88;16.80;;;;;;;;;;5075570;28;20065;-59
2022/03/23 12:47:30;;;;;;;27.67;16.48;;;;;;;;;;5073709;28;20097;-59
2022/03/23 12:58:30;;;;;;;27.48;14.98;;;;;;;;;;5073766;28;20039;-58
2022/03/23 13:01:08;;;;;;;19.88;13.60;;;;;;;;;;5075810;28;20043;-59
2022/03/23 13:03:41;;;;;;;22.38;14.70;;;;;;;;;;5073339;28;20025;-59
2022/03/23 13:06:11;;;;;;;29.80;14.52;;;;;;;;;;5073512;28;20040;-59
2022/03/23 13:08:47;;;;;;;24.25;14.30;;;;;;;;;;5073126;28;20063;-59
2022/03/23 13:11:14;;;;;;;22.60;12.80;;;;;;;;;;5076455;28;20379;-59
2022/03/23 13:13:40;;;;;;;32.72;13.57;;;;;;;;;;5072952;28;20103;-59
2022/03/23 13:16:10;;;;;;;20.15;10.20;;;;;;;;;;5073333;28;20040;-59
2022/03/23 13:18:36;;;;;;;23.40;11.68;;;;;;;;;;5075156;28;20032;-59
2022/03/23 13:21:10;;;;;;;25.23;11.77;;;;;;;;;;5072393;28;20028;-60
2022/03/23 13:23:39;;;;;;;22.38;11.52;;;;;;;;;;5075610;28;20107;-59
2022/03/23 13:26:12;;;;;;;18.48;9.93;;;;;;;;;;5074485;28;20070;-59
2022/03/23 13:28:40;;;;;;;22.95;10.55;;;;;;;;;;5071357;28;20073;-58
2022/03/23 13:31:07;;;;;;;17.55;10.13;;;;;;;;;;5076232;28;20032;-58
2022/03/23 13:33:38;;;;;;;28.67;10.07;;;;;;;;;;5072724;28;20103;-59
2022/03/23 13:36:06;;;;;;;19.95;10.63;;;;;;;;;;5072030;28;20028;-58
2022/03/23 13:38:44;;;;;;;24.58;10.30;;;;;;;;;;5074248;28;20395;-58
2022/03/23 13:43:55;;;;;;;21.70;9.40;;;;;;;;;;5075606;28;20067;-58
2022/03/23 13:46:22;;;;;;;21.48;9.82;;;;;;;;;;5074028;28;20052;-58
2022/03/23 13:48:58;;;;;;;20.63;8.77;;;;;;;;;;5074609;28;20146;-58
2022/03/23 13:51:25;;;;;;;17.15;7.90;;;;;;;;;;5077148;28;20051;-61
2022/03/23 13:53:51;;;;;;;20.20;8.15;;;;;;;;;;5074783;28;20035;-59
2022/03/23 13:56:18;;;;;;;19.08;7.78;;;;;;;;;;5075681;28;20402;-60
2022/03/23 13:58:45;;;;;;;18.08;8.63;;;;;;;;;;5073463;28;20037;-59
2022/03/23 14:01:11;;;;;;;18.48;8.45;;;;;;;;;;5075917;28;20029;-59
2022/03/23 14:03:39;;;;;;;19.42;8.35;;;;;;;;;;5071000;28;20808;-59
2022/03/23 14:06:11;;;;;;;18.25;7.72;;;;;;;;;;5073817;28;20157;-59
2022/03/23 14:08:38;;;;;;;16.08;8.00;;;;;;;;;;5076906;28;20035;-59
2022/03/23 14:11:09;;;;;;;17.50;7.30;;;;;;;;;;5074644;28;20044;-58
2022/03/23 14:13:38;;;;;;;15.90;8.23;;;;;;;;;;5070686;28;20052;-59
2022/03/23 14:16:05;;;;;;;20.23;9.07;;;;;;;;;;5072112;28;20032;-59
2022/03/23 14:18:31;;;;;;;17.65;7.78;;;;;;;;;;5074500;28;20040;-58
2022/03/23 14:20:59;;;;;;;17.05;8.30;;;;;;;;;;5076176;28;20129;-60
2022/03/23 14:23:28;;;;;;;17.10;8.75;;;;;;;;;;5074719;28;20043;-61
2022/03/23 14:25:56;;;;;;;17.73;9.07;;;;;;;;;;5073903;28;20129;-60
2022/03/23 14:28:25;;;;;;;17.35;7.72;;;;;;;;;;5073853;28;20036;-60
2022/03/23 14:31:00;;;;;;;17.90;9.07;;;;;;;;;;5073857;28;20032;-62
2022/03/23 14:33:27;;;;;;;15.20;8.63;;;;;;;;;;5071280;28;20024;-60
2022/03/23 14:35:55;;;;;;;14.63;8.40;;;;;;;;;;5076751;28;20032;-61
2022/03/23 14:38:25;;;;;;;16.77;8.25;;;;;;;;;;5077426;28;20486;-60
2022/03/23 14:40:53;;;;;;;18.17;8.98;;;;;;;;;;5071197;28;20036;-61
2022/03/23 14:43:32;;;;;;;18.95;9.00;;;;;;;;;;5075886;28;23484;-61
2022/03/23 14:45:59;;;;;;;16.35;8.35;;;;;;;;;;5074380;28;20032;-57
2022/03/23 14:48:32;;;;;;;18.92;7.85;;;;;;;;;;5073432;28;20031;-57
2022/03/23 14:51:01;;;;;;;21.55;8.05;;;;;;;;;;5076202;28;20050;-58
2022/03/23 14:53:29;;;;;;;18.00;7.57;;;;;;;;;;5072819;28;20098;-59
2022/03/23 14:55:55;;;;;;;15.52;6.88;;;;;;;;;;5073983;28;20046;-57
2022/03/23 14:58:25;;;;;;;15.00;8.05;;;;;;;;;;5074398;28;20045;-57